Browns Summit, North Carolina
Current Conditions -  °F | °C
As of 6:54 AM on Sunday 23 Nov 2014 (Local Time) from KGSO Reporting Station
Overcast Overcast  
Wind Chill: 42°   Ceiling: 2100
Heat Index: 42°   Visibility: 7mi
Dew Point: 28°   Wind: 0mph
Humidity: 58%   Direction: NA
Pressure: 30.23"   Gusts: NA
Location:  36.21°N, 79.71°W
Report Text: KGSO 231154Z 00000KT 7SM SCT012 OVC021 06/M02 A3023 RMK AO2 SLP238 T00561022 10061 20033 58012
Loading
Personal Weather Stations






























Interactive Weather Map New forecast layout! Learn more

10-Day Weather Forecast

Advertisements
Track Severe Weather on mobile